sensor_id;sensor_type;location;lat;lon;timestamp;temperature;humidity
41884;DHT22;27566;50.930;5.328;2024-03-06T00:01:52;8.60;82.50
41884;DHT22;27566;50.930;5.328;2024-03-06T00:04:18;8.40;82.40
41884;DHT22;27566;50.930;5.328;2024-03-06T00:06:43;8.20;82.40
41884;DHT22;27566;50.930;5.328;2024-03-06T00:09:09;8.50;82.60
41884;DHT22;27566;50.930;5.328;2024-03-06T00:11:35;8.40;83.10
41884;DHT22;27566;50.930;5.328;2024-03-06T00:14:04;8.20;82.20
41884;DHT22;27566;50.930;5.328;2024-03-06T00:16:31;8.30;82.80
41884;DHT22;27566;50.930;5.328;2024-03-06T00:32:49;7.80;83.60
41884;DHT22;27566;50.930;5.328;2024-03-06T00:35:15;7.80;84.30
41884;DHT22;27566;50.930;5.328;2024-03-06T00:37:41;7.80;84.90
41884;DHT22;27566;50.930;5.328;2024-03-06T00:40:07;7.90;85.50
41884;DHT22;27566;50.930;5.328;2024-03-06T00:42:33;8.00;86.00
41884;DHT22;27566;50.930;5.328;2024-03-06T00:45:00;7.80;85.60
41884;DHT22;27566;50.930;5.328;2024-03-06T00:47:27;8.20;86.40
41884;DHT22;27566;50.930;5.328;2024-03-06T00:49:53;8.30;86.80
41884;DHT22;27566;50.930;5.328;2024-03-06T00:54:45;8.50;86.20
41884;DHT22;27566;50.930;5.328;2024-03-06T00:57:11;8.50;85.90
41884;DHT22;27566;50.930;5.328;2024-03-06T00:59:36;8.30;86.30
41884;DHT22;27566;50.930;5.328;2024-03-06T01:04:28;8.30;85.20
41884;DHT22;27566;50.930;5.328;2024-03-06T01:06:54;8.30;85.50
41884;DHT22;27566;50.930;5.328;2024-03-06T01:09:20;8.10;85.10
41884;DHT22;27566;50.930;5.328;2024-03-06T01:11:45;8.00;84.70
41884;DHT22;27566;50.930;5.328;2024-03-06T01:14:13;7.90;84.60
41884;DHT22;27566;50.930;5.328;2024-03-06T01:16:39;7.50;83.70
41884;DHT22;27566;50.930;5.328;2024-03-06T01:19:04;7.70;84.30
41884;DHT22;27566;50.930;5.328;2024-03-06T01:21:30;7.70;84.40
41884;DHT22;27566;50.930;5.328;2024-03-06T01:23:56;7.60;84.60
41884;DHT22;27566;50.930;5.328;2024-03-06T01:26:21;7.50;84.70
41884;DHT22;27566;50.930;5.328;2024-03-06T01:28:47;7.50;84.90
41884;DHT22;27566;50.930;5.328;2024-03-06T01:31:13;7.60;85.10
41884;DHT22;27566;50.930;5.328;2024-03-06T01:36:05;7.30;84.60
41884;DHT22;27566;50.930;5.328;2024-03-06T01:38:30;7.20;85.20
41884;DHT22;27566;50.930;5.328;2024-03-06T01:40:56;7.20;85.50
41884;DHT22;27566;50.930;5.328;2024-03-06T01:43:24;7.20;85.50
41884;DHT22;27566;50.930;5.328;2024-03-06T01:45:50;7.10;85.40
41884;DHT22;27566;50.930;5.328;2024-03-06T01:48:17;7.10;85.50
41884;DHT22;27566;50.930;5.328;2024-03-06T01:50:46;6.90;85.30
41884;DHT22;27566;50.930;5.328;2024-03-06T01:53:12;7.00;85.70
41884;DHT22;27566;50.930;5.328;2024-03-06T01:55:38;6.60;85.60
41884;DHT22;27566;50.930;5.328;2024-03-06T01:58:04;6.90;86.10
41884;DHT22;27566;50.930;5.328;2024-03-06T02:00:32;6.90;86.10
41884;DHT22;27566;50.930;5.328;2024-03-06T02:02:59;6.90;86.40
41884;DHT22;27566;50.930;5.328;2024-03-06T02:05:25;6.90;86.70
41884;DHT22;27566;50.930;5.328;2024-03-06T02:07:53;6.90;86.80
41884;DHT22;27566;50.930;5.328;2024-03-06T02:10:19;6.80;86.80
41884;DHT22;27566;50.930;5.328;2024-03-06T02:15:11;6.80;86.10
41884;DHT22;27566;50.930;5.328;2024-03-06T02:17:38;6.80;86.80
41884;DHT22;27566;50.930;5.328;2024-03-06T02:20:04;6.80;86.80
41884;DHT22;27566;50.930;5.328;2024-03-06T02:22:33;6.80;86.90
41884;DHT22;27566;50.930;5.328;2024-03-06T02:24:58;6.60;86.70
41884;DHT22;27566;50.930;5.328;2024-03-06T02:29:50;6.80;86.50
41884;DHT22;27566;50.930;5.328;2024-03-06T02:32:15;6.80;87.40
41884;DHT22;27566;50.930;5.328;2024-03-06T02:34:43;6.80;87.40
41884;DHT22;27566;50.930;5.328;2024-03-06T02:37:09;6.80;87.40
41884;DHT22;27566;50.930;5.328;2024-03-06T02:39:35;6.70;87.20
41884;DHT22;27566;50.930;5.328;2024-03-06T02:42:01;6.70;87.00
41884;DHT22;27566;50.930;5.328;2024-03-06T02:44:27;6.60;87.10
41884;DHT22;27566;50.930;5.328;2024-03-06T02:46:53;6.60;87.20
41884;DHT22;27566;50.930;5.328;2024-03-06T02:49:19;6.50;87.00
41884;DHT22;27566;50.930;5.328;2024-03-06T02:51:45;6.50;86.80
41884;DHT22;27566;50.930;5.328;2024-03-06T02:54:11;6.30;86.80
41884;DHT22;27566;50.930;5.328;2024-03-06T02:56:37;6.40;86.90
41884;DHT22;27566;50.930;5.328;2024-03-06T02:59:02;6.60;87.30
41884;DHT22;27566;50.930;5.328;2024-03-06T03:01:29;6.40;87.20
41884;DHT22;27566;50.930;5.328;2024-03-06T03:03:55;6.40;87.40
41884;DHT22;27566;50.930;5.328;2024-03-06T03:06:21;6.40;87.40
41884;DHT22;27566;50.930;5.328;2024-03-06T03:08:49;6.30;87.20
41884;DHT22;27566;50.930;5.328;2024-03-06T03:11:15;6.30;87.10
41884;DHT22;27566;50.930;5.328;2024-03-06T03:13:41;6.20;87.10
41884;DHT22;27566;50.930;5.328;2024-03-06T03:16:14;6.20;87.20
41884;DHT22;27566;50.930;5.328;2024-03-06T03:18:40;6.20;87.30
41884;DHT22;27566;50.930;5.328;2024-03-06T03:21:09;6.10;86.40
41884;DHT22;27566;50.930;5.328;2024-03-06T03:23:36;6.10;87.00
41884;DHT22;27566;50.930;5.328;2024-03-06T03:26:02;6.10;86.90
41884;DHT22;27566;50.930;5.328;2024-03-06T03:28:29;6.00;86.80
41884;DHT22;27566;50.930;5.328;2024-03-06T03:30:55;6.00;86.80
41884;DHT22;27566;50.930;5.328;2024-03-06T03:33:22;6.00;86.80
41884;DHT22;27566;50.930;5.328;2024-03-06T03:35:48;5.70;86.80
41884;DHT22;27566;50.930;5.328;2024-03-06T03:38:14;5.90;87.00
41884;DHT22;27566;50.930;5.328;2024-03-06T03:40:40;5.80;86.70
41884;DHT22;27566;50.930;5.328;2024-03-06T03:45:35;5.80;86.40
41884;DHT22;27566;50.930;5.328;2024-03-06T03:48:05;5.80;87.20
41884;DHT22;27566;50.930;5.328;2024-03-06T03:50:31;5.80;87.00
41884;DHT22;27566;50.930;5.328;2024-03-06T03:52:58;5.80;87.00
41884;DHT22;27566;50.930;5.328;2024-03-06T03:55:27;5.70;87.00
41884;DHT22;27566;50.930;5.328;2024-03-06T03:57:53;5.80;87.30
41884;DHT22;27566;50.930;5.328;2024-03-06T04:00:19;5.60;87.10
41884;DHT22;27566;50.930;5.328;2024-03-06T04:02:45;5.60;87.00
41884;DHT22;27566;50.930;5.328;2024-03-06T04:05:12;5.60;87.00
41884;DHT22;27566;50.930;5.328;2024-03-06T04:07:37;5.50;86.90
41884;DHT22;27566;50.930;5.328;2024-03-06T04:10:04;5.50;87.00
41884;DHT22;27566;50.930;5.328;2024-03-06T04:12:30;5.50;87.00
41884;DHT22;27566;50.930;5.328;2024-03-06T04:14:56;5.50;87.20
41884;DHT22;27566;50.930;5.328;2024-03-06T04:17:22;5.40;87.30
41884;DHT22;27566;50.930;5.328;2024-03-06T04:19:48;5.50;87.40
41884;DHT22;27566;50.930;5.328;2024-03-06T04:22:16;5.40;87.30
41884;DHT22;27566;50.930;5.328;2024-03-06T04:24:44;5.10;87.40
41884;DHT22;27566;50.930;5.328;2024-03-06T04:29:36;5.40;86.60
41884;DHT22;27566;50.930;5.328;2024-03-06T04:32:02;5.30;87.30
41884;DHT22;27566;50.930;5.328;2024-03-06T04:34:28;5.30;87.50
41884;DHT22;27566;50.930;5.328;2024-03-06T04:36:54;5.30;87.60
41884;DHT22;27566;50.930;5.328;2024-03-06T04:39:19;5.30;87.50
41884;DHT22;27566;50.930;5.328;2024-03-06T04:41:45;5.10;87.90
41884;DHT22;27566;50.930;5.328;2024-03-06T04:44:11;5.40;88.20
41884;DHT22;27566;50.930;5.328;2024-03-06T04:46:37;5.60;88.00
41884;DHT22;27566;50.930;5.328;2024-03-06T04:49:03;5.20;87.80
41884;DHT22;27566;50.930;5.328;2024-03-06T04:51:29;5.00;87.40
41884;DHT22;27566;50.930;5.328;2024-03-06T04:53:55;5.20;87.80
41884;DHT22;27566;50.930;5.328;2024-03-06T04:58:48;5.20;86.90
41884;DHT22;27566;50.930;5.328;2024-03-06T05:01:13;5.50;88.10
41884;DHT22;27566;50.930;5.328;2024-03-06T05:03:39;5.10;87.50
41884;DHT22;27566;50.930;5.328;2024-03-06T05:06:06;4.80;87.70
41884;DHT22;27566;50.930;5.328;2024-03-06T05:08:32;5.00;87.30
41884;DHT22;27566;50.930;5.328;2024-03-06T05:11:00;5.00;87.20
41884;DHT22;27566;50.930;5.328;2024-03-06T05:13:26;5.10;87.90
41884;DHT22;27566;50.930;5.328;2024-03-06T05:15:52;5.00;87.20
41884;DHT22;27566;50.930;5.328;2024-03-06T05:18:20;4.90;87.30
41884;DHT22;27566;50.930;5.328;2024-03-06T05:20:46;4.90;87.10
41884;DHT22;27566;50.930;5.328;2024-03-06T05:23:12;5.00;87.60
41884;DHT22;27566;50.930;5.328;2024-03-06T05:25:40;4.80;86.90
41884;DHT22;27566;50.930;5.328;2024-03-06T05:28:06;4.80;87.70
41884;DHT22;27566;50.930;5.328;2024-03-06T05:30:32;4.80;87.00
41884;DHT22;27566;50.930;5.328;2024-03-06T05:32:58;4.80;86.90
41884;DHT22;27566;50.930;5.328;2024-03-06T05:35:23;4.80;86.90
41884;DHT22;27566;50.930;5.328;2024-03-06T05:40:16;4.70;86.30
41884;DHT22;27566;50.930;5.328;2024-03-06T05:42:42;4.70;87.70
41884;DHT22;27566;50.930;5.328;2024-03-06T05:45:08;4.70;87.00
41884;DHT22;27566;50.930;5.328;2024-03-06T05:47:37;4.70;87.00
41884;DHT22;27566;50.930;5.328;2024-03-06T05:50:07;4.90;87.60
41884;DHT22;27566;50.930;5.328;2024-03-06T05:52:33;4.60;86.90
41884;DHT22;27566;50.930;5.328;2024-03-06T05:54:59;4.60;87.50
41884;DHT22;27566;50.930;5.328;2024-03-06T05:57:25;4.60;86.90
41884;DHT22;27566;50.930;5.328;2024-03-06T05:59:51;4.60;86.90
41884;DHT22;27566;50.930;5.328;2024-03-06T06:02:17;4.60;87.20
41884;DHT22;27566;50.930;5.328;2024-03-06T06:04:45;4.60;87.80
41884;DHT22;27566;50.930;5.328;2024-03-06T06:07:11;4.60;87.20
41884;DHT22;27566;50.930;5.328;2024-03-06T06:09:37;4.70;87.30
41884;DHT22;27566;50.930;5.328;2024-03-06T06:12:02;4.80;88.00
41884;DHT22;27566;50.930;5.328;2024-03-06T06:14:28;4.70;87.50
41884;DHT22;27566;50.930;5.328;2024-03-06T06:16:58;4.90;88.30
41884;DHT22;27566;50.930;5.328;2024-03-06T06:19:24;4.70;87.70
41884;DHT22;27566;50.930;5.328;2024-03-06T06:21:53;4.50;87.70
41884;DHT22;27566;50.930;5.328;2024-03-06T06:24:19;4.70;87.70
41884;DHT22;27566;50.930;5.328;2024-03-06T06:29:12;4.80;88.40
41884;DHT22;27566;50.930;5.328;2024-03-06T06:31:41;4.90;87.90
41884;DHT22;27566;50.930;5.328;2024-03-06T06:34:07;4.90;88.00
41884;DHT22;27566;50.930;5.328;2024-03-06T06:36:36;5.00;88.20
41884;DHT22;27566;50.930;5.328;2024-03-06T06:39:03;5.20;88.50
41884;DHT22;27566;50.930;5.328;2024-03-06T06:41:31;5.00;88.00
41884;DHT22;27566;50.930;5.328;2024-03-06T06:43:57;5.10;88.10
41884;DHT22;27566;50.930;5.328;2024-03-06T06:46:23;4.80;88.20
41884;DHT22;27566;50.930;5.328;2024-03-06T06:48:49;5.10;88.10
41884;DHT22;27566;50.930;5.328;2024-03-06T06:51:15;5.60;88.30
41884;DHT22;27566;50.930;5.328;2024-03-06T06:53:41;5.30;88.10
41884;DHT22;27566;50.930;5.328;2024-03-06T06:56:09;5.30;88.00
41884;DHT22;27566;50.930;5.328;2024-03-06T06:58:35;5.30;88.30
41884;DHT22;27566;50.930;5.328;2024-03-06T07:01:01;5.30;87.90
41884;DHT22;27566;50.930;5.328;2024-03-06T07:03:29;5.40;88.00
41884;DHT22;27566;50.930;5.328;2024-03-06T07:05:56;5.40;88.30
41884;DHT22;27566;50.930;5.328;2024-03-06T07:08:23;5.40;88.20
41884;DHT22;27566;50.930;5.328;2024-03-06T07:10:49;5.90;88.40
41884;DHT22;27566;50.930;5.328;2024-03-06T07:13:15;5.60;88.30
41884;DHT22;27566;50.930;5.328;2024-03-06T07:15:43;5.40;88.50
41884;DHT22;27566;50.930;5.328;2024-03-06T07:18:09;5.60;88.60
41884;DHT22;27566;50.930;5.328;2024-03-06T07:20:35;5.70;88.60
41884;DHT22;27566;50.930;5.328;2024-03-06T07:23:01;5.80;88.50
41884;DHT22;27566;50.930;5.328;2024-03-06T07:25:27;5.90;89.20
41884;DHT22;27566;50.930;5.328;2024-03-06T07:27:53;5.90;88.70
41884;DHT22;27566;50.930;5.328;2024-03-06T07:30:19;5.80;88.60
41884;DHT22;27566;50.930;5.328;2024-03-06T07:32:45;6.10;88.80
41884;DHT22;27566;50.930;5.328;2024-03-06T07:35:11;6.20;88.80
41884;DHT22;27566;50.930;5.328;2024-03-06T07:37:37;6.30;89.20
41884;DHT22;27566;50.930;5.328;2024-03-06T07:40:03;6.40;89.00
41884;DHT22;27566;50.930;5.328;2024-03-06T07:42:30;6.40;89.00
41884;DHT22;27566;50.930;5.328;2024-03-06T07:44:57;6.60;89.10
41884;DHT22;27566;50.930;5.328;2024-03-06T07:47:23;6.90;89.00
41884;DHT22;27566;50.930;5.328;2024-03-06T07:49:49;6.70;89.00
41884;DHT22;27566;50.930;5.328;2024-03-06T07:52:16;7.00;89.20
41884;DHT22;27566;50.930;5.328;2024-03-06T07:54:42;6.90;89.10
41884;DHT22;27566;50.930;5.328;2024-03-06T07:57:07;6.80;88.90
41884;DHT22;27566;50.930;5.328;2024-03-06T07:59:35;7.00;89.10
41884;DHT22;27566;50.930;5.328;2024-03-06T08:02:01;7.10;89.10
41884;DHT22;27566;50.930;5.328;2024-03-06T08:04:27;7.40;89.20
41884;DHT22;27566;50.930;5.328;2024-03-06T08:06:52;7.20;89.00
41884;DHT22;27566;50.930;5.328;2024-03-06T08:09:18;7.50;88.70
41884;DHT22;27566;50.930;5.328;2024-03-06T08:11:45;7.40;88.90
41884;DHT22;27566;50.930;5.328;2024-03-06T08:14:11;7.50;88.60
41884;DHT22;27566;50.930;5.328;2024-03-06T10:33:49;11.40;74.20
41884;DHT22;27566;50.930;5.328;2024-03-06T10:36:15;11.40;73.50
41884;DHT22;27566;50.930;5.328;2024-03-06T10:38:44;11.50;72.80
41884;DHT22;27566;50.930;5.328;2024-03-06T10:41:14;11.60;72.70
41884;DHT22;27566;50.930;5.328;2024-03-06T10:43:43;11.70;72.50
41884;DHT22;27566;50.930;5.328;2024-03-06T10:46:11;11.80;71.90
41884;DHT22;27566;50.930;5.328;2024-03-06T10:48:38;12.00;71.20
41884;DHT22;27566;50.930;5.328;2024-03-06T10:51:07;12.10;69.60
41884;DHT22;27566;50.930;5.328;2024-03-06T10:53:35;12.30;68.80
41884;DHT22;27566;50.930;5.328;2024-03-06T10:56:02;12.50;68.70
41884;DHT22;27566;50.930;5.328;2024-03-06T10:58:29;12.80;68.90
41884;DHT22;27566;50.930;5.328;2024-03-06T11:00:56;13.10;68.50
41884;DHT22;27566;50.930;5.328;2024-03-06T11:03:23;13.30;66.30
41884;DHT22;27566;50.930;5.328;2024-03-06T11:05:51;13.60;65.50
41884;DHT22;27566;50.930;5.328;2024-03-06T11:08:17;13.90;64.40
41884;DHT22;27566;50.930;5.328;2024-03-06T11:10:43;14.20;62.00
41884;DHT22;27566;50.930;5.328;2024-03-06T11:13:25;14.20;62.30
41884;DHT22;27566;50.930;5.328;2024-03-06T11:15:57;14.20;61.00
41884;DHT22;27566;50.930;5.328;2024-03-06T11:23:29;14.50;61.50
41884;DHT22;27566;50.930;5.328;2024-03-06T11:26:05;14.70;61.30
41884;DHT22;27566;50.930;5.328;2024-03-06T11:28:33;15.00;60.70
41884;DHT22;27566;50.930;5.328;2024-03-06T11:31:01;15.40;58.50
41884;DHT22;27566;50.930;5.328;2024-03-06T11:33:52;15.40;58.50
41884;DHT22;27566;50.930;5.328;2024-03-06T11:38:59;15.90;56.40
41884;DHT22;27566;50.930;5.328;2024-03-06T11:41:26;15.90;56.80
41884;DHT22;27566;50.930;5.328;2024-03-06T11:43:54;16.00;55.80
41884;DHT22;27566;50.930;5.328;2024-03-06T11:49:32;16.20;55.70
41884;DHT22;27566;50.930;5.328;2024-03-06T11:52:06;16.30;54.90
41884;DHT22;27566;50.930;5.328;2024-03-06T11:54:36;16.30;55.00
41884;DHT22;27566;50.930;5.328;2024-03-06T11:57:04;16.40;53.60
41884;DHT22;27566;50.930;5.328;2024-03-06T11:59:35;16.40;53.00
41884;DHT22;27566;50.930;5.328;2024-03-06T12:02:05;16.50;52.90
41884;DHT22;27566;50.930;5.328;2024-03-06T12:04:32;16.50;52.50
41884;DHT22;27566;50.930;5.328;2024-03-06T12:07:00;16.60;52.90
41884;DHT22;27566;50.930;5.328;2024-03-06T12:09:35;16.70;52.50
41884;DHT22;27566;50.930;5.328;2024-03-06T12:12:01;16.70;50.30
41884;DHT22;27566;50.930;5.328;2024-03-06T12:14:27;16.60;51.00
41884;DHT22;27566;50.930;5.328;2024-03-06T12:17:01;16.60;51.30
41884;DHT22;27566;50.930;5.328;2024-03-06T12:19:33;16.60;50.50
41884;DHT22;27566;50.930;5.328;2024-03-06T12:22:05;16.50;50.00
41884;DHT22;27566;50.930;5.328;2024-03-06T12:24:31;16.60;50.30
41884;DHT22;27566;50.930;5.328;2024-03-06T12:27:04;16.90;50.40
41884;DHT22;27566;50.930;5.328;2024-03-06T12:29:32;17.10;50.50
41884;DHT22;27566;50.930;5.328;2024-03-06T12:31:59;17.30;50.00
41884;DHT22;27566;50.930;5.328;2024-03-06T12:34:25;17.40;48.90
41884;DHT22;27566;50.930;5.328;2024-03-06T12:36:51;17.30;48.60
41884;DHT22;27566;50.930;5.328;2024-03-06T12:39:18;17.10;47.40
41884;DHT22;27566;50.930;5.328;2024-03-06T12:41:47;17.10;47.50
41884;DHT22;27566;50.930;5.328;2024-03-06T12:44:13;17.10;47.70
41884;DHT22;27566;50.930;5.328;2024-03-06T12:49:06;17.10;47.50
41884;DHT22;27566;50.930;5.328;2024-03-06T12:53:59;17.20;47.20
41884;DHT22;27566;50.930;5.328;2024-03-06T12:56:26;17.30;46.40
41884;DHT22;27566;50.930;5.328;2024-03-06T12:58:52;17.40;46.60
41884;DHT22;27566;50.930;5.328;2024-03-06T13:01:18;17.50;46.60
41884;DHT22;27566;50.930;5.328;2024-03-06T13:03:45;17.50;46.00
41884;DHT22;27566;50.930;5.328;2024-03-06T13:06:12;17.50;46.60
41884;DHT22;27566;50.930;5.328;2024-03-06T13:08:38;17.60;47.20
41884;DHT22;27566;50.930;5.328;2024-03-06T13:11:04;17.60;47.40
41884;DHT22;27566;50.930;5.328;2024-03-06T13:13:30;17.70;46.30
41884;DHT22;27566;50.930;5.328;2024-03-06T13:15:58;17.80;46.20
41884;DHT22;27566;50.930;5.328;2024-03-06T13:18:24;18.00;46.30
41884;DHT22;27566;50.930;5.328;2024-03-06T13:21:00;18.10;46.30
41884;DHT22;27566;50.930;5.328;2024-03-06T13:23:27;18.20;45.80
41884;DHT22;27566;50.930;5.328;2024-03-06T13:25:53;18.20;45.20
41884;DHT22;27566;50.930;5.328;2024-03-06T13:28:19;18.20;44.50
41884;DHT22;27566;50.930;5.328;2024-03-06T13:30:46;18.10;44.20
41884;DHT22;27566;50.930;5.328;2024-03-06T13:33:12;18.10;43.90
41884;DHT22;27566;50.930;5.328;2024-03-06T13:35:38;18.30;43.50
41884;DHT22;27566;50.930;5.328;2024-03-06T13:38:04;18.40;43.70
41884;DHT22;27566;50.930;5.328;2024-03-06T13:40:30;18.40;42.90
41884;DHT22;27566;50.930;5.328;2024-03-06T13:42:56;18.40;43.30
41884;DHT22;27566;50.930;5.328;2024-03-06T13:45:22;18.40;43.00
41884;DHT22;27566;50.930;5.328;2024-03-06T13:47:48;18.40;43.30
41884;DHT22;27566;50.930;5.328;2024-03-06T13:50:15;18.30;43.30
41884;DHT22;27566;50.930;5.328;2024-03-06T13:52:43;18.30;42.60
41884;DHT22;27566;50.930;5.328;2024-03-06T13:55:09;18.10;42.00
41884;DHT22;27566;50.930;5.328;2024-03-06T13:57:37;18.00;42.40
41884;DHT22;27566;50.930;5.328;2024-03-06T14:00:07;18.00;43.80
41884;DHT22;27566;50.930;5.328;2024-03-06T14:02:46;18.00;44.40
41884;DHT22;27566;50.930;5.328;2024-03-06T14:05:13;18.00;43.90
41884;DHT22;27566;50.930;5.328;2024-03-06T14:07:40;17.90;44.00
41884;DHT22;27566;50.930;5.328;2024-03-06T14:10:07;17.90;44.60
41884;DHT22;27566;50.930;5.328;2024-03-06T14:12:37;17.90;44.40
41884;DHT22;27566;50.930;5.328;2024-03-06T14:15:04;18.00;42.70
41884;DHT22;27566;50.930;5.328;2024-03-06T14:17:30;17.90;42.30
41884;DHT22;27566;50.930;5.328;2024-03-06T14:19:57;17.90;42.90
41884;DHT22;27566;50.930;5.328;2024-03-06T14:22:22;18.00;43.80
41884;DHT22;27566;50.930;5.328;2024-03-06T14:24:48;18.00;43.60
41884;DHT22;27566;50.930;5.328;2024-03-06T14:27:14;18.10;42.90
41884;DHT22;27566;50.930;5.328;2024-03-06T14:29:40;18.00;42.20
41884;DHT22;27566;50.930;5.328;2024-03-06T14:32:06;17.90;43.00
41884;DHT22;27566;50.930;5.328;2024-03-06T14:34:33;17.70;42.70
41884;DHT22;27566;50.930;5.328;2024-03-06T14:36:59;17.60;42.50
41884;DHT22;27566;50.930;5.328;2024-03-06T14:39:24;17.60;41.60
41884;DHT22;27566;50.930;5.328;2024-03-06T14:41:51;17.40;41.30
41884;DHT22;27566;50.930;5.328;2024-03-06T14:44:18;17.20;42.00
41884;DHT22;27566;50.930;5.328;2024-03-06T14:46:44;17.20;42.40
41884;DHT22;27566;50.930;5.328;2024-03-06T14:49:10;17.10;42.10
41884;DHT22;27566;50.930;5.328;2024-03-06T14:51:36;17.00;42.40
41884;DHT22;27566;50.930;5.328;2024-03-06T14:54:02;16.90;42.50
41884;DHT22;27566;50.930;5.328;2024-03-06T14:56:29;16.90;42.60
41884;DHT22;27566;50.930;5.328;2024-03-06T14:58:57;16.80;42.80
41884;DHT22;27566;50.930;5.328;2024-03-06T15:01:23;16.70;43.10
41884;DHT22;27566;50.930;5.328;2024-03-06T15:03:51;16.50;42.40
41884;DHT22;27566;50.930;5.328;2024-03-06T15:06:17;16.40;42.80
41884;DHT22;27566;50.930;5.328;2024-03-06T15:08:43;16.20;43.00
41884;DHT22;27566;50.930;5.328;2024-03-06T15:11:10;16.10;43.30
41884;DHT22;27566;50.930;5.328;2024-03-06T15:13:37;16.00;42.70
41884;DHT22;27566;50.930;5.328;2024-03-06T15:16:03;15.80;43.20
41884;DHT22;27566;50.930;5.328;2024-03-06T15:18:33;15.70;43.70
41884;DHT22;27566;50.930;5.328;2024-03-06T15:20:59;15.70;44.40
41884;DHT22;27566;50.930;5.328;2024-03-06T15:23:25;15.60;44.50
41884;DHT22;27566;50.930;5.328;2024-03-06T15:25:51;15.60;44.50
41884;DHT22;27566;50.930;5.328;2024-03-06T15:30:44;15.40;43.20
41884;DHT22;27566;50.930;5.328;2024-03-06T15:33:10;15.30;44.10
41884;DHT22;27566;50.930;5.328;2024-03-06T15:35:36;15.20;44.70
41884;DHT22;27566;50.930;5.328;2024-03-06T15:38:02;15.10;42.90
41884;DHT22;27566;50.930;5.328;2024-03-06T15:40:29;14.90;43.50
41884;DHT22;27566;50.930;5.328;2024-03-06T15:42:55;14.80;44.00
41884;DHT22;27566;50.930;5.328;2024-03-06T15:47:49;14.60;43.10
41884;DHT22;27566;50.930;5.328;2024-03-06T15:50:15;14.50;43.50
41884;DHT22;27566;50.930;5.328;2024-03-06T15:52:41;14.50;43.40
41884;DHT22;27566;50.930;5.328;2024-03-06T15:55:08;14.40;42.40
41884;DHT22;27566;50.930;5.328;2024-03-06T15:57:35;14.30;42.80
41884;DHT22;27566;50.930;5.328;2024-03-06T16:00:06;14.20;43.30
41884;DHT22;27566;50.930;5.328;2024-03-06T16:02:32;14.10;44.20
41884;DHT22;27566;50.930;5.328;2024-03-06T16:04:58;14.10;47.40
41884;DHT22;27566;50.930;5.328;2024-03-06T16:07:24;14.10;48.30
41884;DHT22;27566;50.930;5.328;2024-03-06T16:09:52;14.00;48.80
41884;DHT22;27566;50.930;5.328;2024-03-06T16:12:18;14.00;48.70
41884;DHT22;27566;50.930;5.328;2024-03-06T16:14:43;14.00;48.50
41884;DHT22;27566;50.930;5.328;2024-03-06T16:17:09;13.90;49.50
41884;DHT22;27566;50.930;5.328;2024-03-06T16:19:36;13.90;50.20
41884;DHT22;27566;50.930;5.328;2024-03-06T16:22:02;13.90;50.60
41884;DHT22;27566;50.930;5.328;2024-03-06T16:24:28;13.80;50.50
41884;DHT22;27566;50.930;5.328;2024-03-06T16:26:55;13.80;50.70
41884;DHT22;27566;50.930;5.328;2024-03-06T16:29:21;13.80;51.10
41884;DHT22;27566;50.930;5.328;2024-03-06T16:31:47;13.70;51.10
41884;DHT22;27566;50.930;5.328;2024-03-06T16:34:16;13.60;51.50
41884;DHT22;27566;50.930;5.328;2024-03-06T16:36:43;13.50;51.30
41884;DHT22;27566;50.930;5.328;2024-03-06T16:39:09;13.50;51.90
41884;DHT22;27566;50.930;5.328;2024-03-06T16:41:35;13.60;51.70
41884;DHT22;27566;50.930;5.328;2024-03-06T16:44:01;13.40;51.60
41884;DHT22;27566;50.930;5.328;2024-03-06T16:46:29;13.60;52.20
41884;DHT22;27566;50.930;5.328;2024-03-06T16:48:56;13.60;52.00
41884;DHT22;27566;50.930;5.328;2024-03-06T16:51:22;13.50;52.00
41884;DHT22;27566;50.930;5.328;2024-03-06T16:53:48;13.50;52.10
41884;DHT22;27566;50.930;5.328;2024-03-06T16:56:14;13.50;51.80
41884;DHT22;27566;50.930;5.328;2024-03-06T16:58:40;13.40;51.60
41884;DHT22;27566;50.930;5.328;2024-03-06T17:01:06;13.20;51.30
41884;DHT22;27566;50.930;5.328;2024-03-06T17:03:32;13.10;51.40
41884;DHT22;27566;50.930;5.328;2024-03-06T17:08:25;12.90;51.50
41884;DHT22;27566;50.930;5.328;2024-03-06T17:10:51;12.80;52.10
41884;DHT22;27566;50.930;5.328;2024-03-06T17:13:17;12.70;52.50
41884;DHT22;27566;50.930;5.328;2024-03-06T17:15:43;12.50;52.50
41884;DHT22;27566;50.930;5.328;2024-03-06T17:18:10;12.50;53.00
41884;DHT22;27566;50.930;5.328;2024-03-06T17:20:36;12.50;53.50
41884;DHT22;27566;50.930;5.328;2024-03-06T17:23:04;12.40;53.80
41884;DHT22;27566;50.930;5.328;2024-03-06T17:25:30;12.30;53.90
41884;DHT22;27566;50.930;5.328;2024-03-06T17:27:56;12.20;54.40
41884;DHT22;27566;50.930;5.328;2024-03-06T17:30:23;12.20;54.10
41884;DHT22;27566;50.930;5.328;2024-03-06T17:32:49;12.00;54.50
41884;DHT22;27566;50.930;5.328;2024-03-06T17:35:17;12.00;54.30
41884;DHT22;27566;50.930;5.328;2024-03-06T17:37:43;11.90;54.60
41884;DHT22;27566;50.930;5.328;2024-03-06T17:40:09;11.70;55.10
41884;DHT22;27566;50.930;5.328;2024-03-06T17:52:44;11.40;56.00
41884;DHT22;27566;50.930;5.328;2024-03-06T17:55:11;11.20;56.20
41884;DHT22;27566;50.930;5.328;2024-03-06T17:57:37;11.10;57.10
41884;DHT22;27566;50.930;5.328;2024-03-06T18:00:13;11.10;57.30
41884;DHT22;27566;50.930;5.328;2024-03-06T18:02:39;10.90;57.30
41884;DHT22;27566;50.930;5.328;2024-03-06T18:05:05;10.90;57.80
41884;DHT22;27566;50.930;5.328;2024-03-06T18:07:33;10.90;58.20
41884;DHT22;27566;50.930;5.328;2024-03-06T18:09:59;10.90;57.80
41884;DHT22;27566;50.930;5.328;2024-03-06T18:12:25;10.90;58.40
41884;DHT22;27566;50.930;5.328;2024-03-06T18:14:56;10.90;58.40
41884;DHT22;27566;50.930;5.328;2024-03-06T18:17:23;10.80;58.50
41884;DHT22;27566;50.930;5.328;2024-03-06T18:19:53;10.80;58.80
41884;DHT22;27566;50.930;5.328;2024-03-06T18:22:19;10.40;58.40
41884;DHT22;27566;50.930;5.328;2024-03-06T18:24:45;10.60;59.10
41884;DHT22;27566;50.930;5.328;2024-03-06T18:27:12;10.70;59.10
41884;DHT22;27566;50.930;5.328;2024-03-06T18:29:37;10.50;59.80
41884;DHT22;27566;50.930;5.328;2024-03-06T18:32:05;10.40;59.80
41884;DHT22;27566;50.930;5.328;2024-03-06T18:34:46;10.50;60.10
41884;DHT22;27566;50.930;5.328;2024-03-06T18:37:13;10.30;60.50
41884;DHT22;27566;50.930;5.328;2024-03-06T18:39:39;10.20;60.70
41884;DHT22;27566;50.930;5.328;2024-03-06T18:42:05;10.20;61.20
41884;DHT22;27566;50.930;5.328;2024-03-06T18:44:32;10.10;61.10
41884;DHT22;27566;50.930;5.328;2024-03-06T18:46:58;10.10;61.60
41884;DHT22;27566;50.930;5.328;2024-03-06T18:49:25;10.10;61.40
41884;DHT22;27566;50.930;5.328;2024-03-06T18:51:50;10.20;61.60
41884;DHT22;27566;50.930;5.328;2024-03-06T18:54:16;10.00;62.00
41884;DHT22;27566;50.930;5.328;2024-03-06T18:56:43;10.00;61.90
41884;DHT22;27566;50.930;5.328;2024-03-06T18:59:10;9.90;62.00
41884;DHT22;27566;50.930;5.328;2024-03-06T19:01:39;9.80;61.90
41884;DHT22;27566;50.930;5.328;2024-03-06T19:04:06;9.80;62.40